sensor_id;sensor_type;location;lat;lon;timestamp;pressure;altitude;pressure_sealevel;temperature;humidity
34065;BME280;20339;49.754;20.158;2023-03-11T00:01:38;94169.52;;;7.15;87.78
34065;BME280;20339;49.754;20.158;2023-03-11T00:04:09;94169.44;;;7.15;87.80
34065;BME280;20339;49.754;20.158;2023-03-11T00:06:38;94174.52;;;7.14;87.95
34065;BME280;20339;49.754;20.158;2023-03-11T00:09:08;94178.17;;;7.15;87.88
34065;BME280;20339;49.754;20.158;2023-03-11T00:11:38;94185.33;;;7.17;87.82
34065;BME280;20339;49.754;20.158;2023-03-11T00:14:07;94177.77;;;7.18;87.82
34065;BME280;20339;49.754;20.158;2023-03-11T00:16:37;94177.38;;;7.19;87.77
34065;BME280;20339;49.754;20.158;2023-03-11T00:19:06;94177.23;;;7.23;87.76
34065;BME280;20339;49.754;20.158;2023-03-11T00:21:35;94171.18;;;7.27;87.69
34065;BME280;20339;49.754;20.158;2023-03-11T00:24:06;94167.13;;;7.31;87.66
34065;BME280;20339;49.754;20.158;2023-03-11T00:26:35;94161.56;;;7.33;87.50
34065;BME280;20339;49.754;20.158;2023-03-11T00:29:05;94154.48;;;7.34;87.23
34065;BME280;20339;49.754;20.158;2023-03-11T00:31:34;94159.10;;;7.35;87.20
34065;BME280;20339;49.754;20.158;2023-03-11T00:34:04;94160.29;;;7.39;87.20
34065;BME280;20339;49.754;20.158;2023-03-11T00:36:33;94161.39;;;7.40;87.02
34065;BME280;20339;49.754;20.158;2023-03-11T00:39:03;94162.20;;;7.40;87.07
34065;BME280;20339;49.754;20.158;2023-03-11T00:41:33;94162.36;;;7.40;86.84
34065;BME280;20339;49.754;20.158;2023-03-11T00:44:03;94160.98;;;7.39;86.66
34065;BME280;20339;49.754;20.158;2023-03-11T00:46:32;94161.33;;;7.40;86.67
34065;BME280;20339;49.754;20.158;2023-03-11T00:49:01;94153.20;;;7.38;86.48
34065;BME280;20339;49.754;20.158;2023-03-11T00:51:31;94149.61;;;7.37;86.21
34065;BME280;20339;49.754;20.158;2023-03-11T00:54:00;94147.81;;;7.35;86.08
34065;BME280;20339;49.754;20.158;2023-03-11T00:56:30;94144.14;;;7.34;86.09
34065;BME280;20339;49.754;20.158;2023-03-11T00:58:59;94133.38;;;7.32;85.90
34065;BME280;20339;49.754;20.158;2023-03-11T01:01:29;94132.27;;;7.32;86.01
34065;BME280;20339;49.754;20.158;2023-03-11T01:03:58;94130.59;;;7.34;85.99
34065;BME280;20339;49.754;20.158;2023-03-11T01:06:27;94129.04;;;7.33;85.86
34065;BME280;20339;49.754;20.158;2023-03-11T01:08:57;94120.73;;;7.29;85.83
34065;BME280;20339;49.754;20.158;2023-03-11T01:11:26;94118.05;;;7.27;86.18
34065;BME280;20339;49.754;20.158;2023-03-11T01:13:56;94117.80;;;7.33;86.34
34065;BME280;20339;49.754;20.158;2023-03-11T01:16:25;94108.66;;;7.39;86.12
34065;BME280;20339;49.754;20.158;2023-03-11T01:18:54;94114.88;;;7.45;85.93
34065;BME280;20339;49.754;20.158;2023-03-11T01:21:24;94109.70;;;7.47;85.86
34065;BME280;20339;49.754;20.158;2023-03-11T01:23:53;94110.53;;;7.49;85.68
34065;BME280;20339;49.754;20.158;2023-03-11T01:26:23;94113.39;;;7.51;85.58
34065;BME280;20339;49.754;20.158;2023-03-11T01:28:52;94118.35;;;7.53;85.50
34065;BME280;20339;49.754;20.158;2023-03-11T01:31:22;94111.63;;;7.57;85.34
34065;BME280;20339;49.754;20.158;2023-03-11T01:33:51;94114.27;;;7.59;85.19
34065;BME280;20339;49.754;20.158;2023-03-11T01:36:21;94108.63;;;7.60;84.94
34065;BME280;20339;49.754;20.158;2023-03-11T01:38:50;94107.08;;;7.61;84.81
34065;BME280;20339;49.754;20.158;2023-03-11T01:41:19;94106.48;;;7.56;84.83
34065;BME280;20339;49.754;20.158;2023-03-11T01:43:52;94110.45;;;7.51;84.92
34065;BME280;20339;49.754;20.158;2023-03-11T01:46:23;94104.66;;;7.47;84.74
34065;BME280;20339;49.754;20.158;2023-03-11T01:48:53;94109.65;;;7.50;84.78
34065;BME280;20339;49.754;20.158;2023-03-11T01:51:24;94109.58;;;7.52;84.82
34065;BME280;20339;49.754;20.158;2023-03-11T01:53:55;94102.83;;;7.51;84.74
34065;BME280;20339;49.754;20.158;2023-03-11T01:56:25;94104.84;;;7.52;84.69
34065;BME280;20339;49.754;20.158;2023-03-11T01:58:55;94102.02;;;7.51;84.60
34065;BME280;20339;49.754;20.158;2023-03-11T02:01:24;94107.91;;;7.50;84.70
34065;BME280;20339;49.754;20.158;2023-03-11T02:03:56;94103.29;;;7.47;84.54
34065;BME280;20339;49.754;20.158;2023-03-11T02:06:25;94097.42;;;7.45;84.62
34065;BME280;20339;49.754;20.158;2023-03-11T02:08:55;94093.77;;;7.44;84.53
34065;BME280;20339;49.754;20.158;2023-03-11T02:11:25;94094.44;;;7.44;84.42
34065;BME280;20339;49.754;20.158;2023-03-11T02:13:55;94097.34;;;7.43;84.55
34065;BME280;20339;49.754;20.158;2023-03-11T02:16:27;94101.95;;;7.41;84.52
34065;BME280;20339;49.754;20.158;2023-03-11T02:18:56;94098.05;;;7.40;84.46
34065;BME280;20339;49.754;20.158;2023-03-11T02:21:28;94098.48;;;7.39;84.63
34065;BME280;20339;49.754;20.158;2023-03-11T02:23:58;94105.45;;;7.38;84.67
34065;BME280;20339;49.754;20.158;2023-03-11T02:26:31;94114.08;;;7.35;85.29
34065;BME280;20339;49.754;20.158;2023-03-11T02:29:04;94125.09;;;7.26;86.16
34065;BME280;20339;49.754;20.158;2023-03-11T02:31:34;94123.42;;;7.14;86.75
34065;BME280;20339;49.754;20.158;2023-03-11T02:34:05;94129.38;;;6.86;86.96
34065;BME280;20339;49.754;20.158;2023-03-11T02:36:36;94126.58;;;6.58;87.57
34065;BME280;20339;49.754;20.158;2023-03-11T02:39:07;94138.80;;;6.38;88.26
34065;BME280;20339;49.754;20.158;2023-03-11T02:41:38;94127.11;;;6.23;88.18
34065;BME280;20339;49.754;20.158;2023-03-11T02:44:08;94129.66;;;6.10;88.28
34065;BME280;20339;49.754;20.158;2023-03-11T02:46:39;94126.36;;;6.00;88.27
34065;BME280;20339;49.754;20.158;2023-03-11T02:49:09;94130.41;;;5.93;87.73
34065;BME280;20339;49.754;20.158;2023-03-11T02:51:39;94121.36;;;5.86;87.28
34065;BME280;20339;49.754;20.158;2023-03-11T02:54:09;94135.90;;;5.82;87.15
34065;BME280;20339;49.754;20.158;2023-03-11T02:56:38;94139.64;;;5.76;87.08
34065;BME280;20339;49.754;20.158;2023-03-11T02:59:07;94144.11;;;5.74;86.58
34065;BME280;20339;49.754;20.158;2023-03-11T03:01:37;94137.74;;;5.71;86.42
34065;BME280;20339;49.754;20.158;2023-03-11T03:04:06;94145.14;;;5.70;85.08
34065;BME280;20339;49.754;20.158;2023-03-11T03:06:36;94144.05;;;5.68;85.24
34065;BME280;20339;49.754;20.158;2023-03-11T03:09:05;94143.02;;;5.63;85.43
34065;BME280;20339;49.754;20.158;2023-03-11T03:11:35;94143.94;;;5.60;85.73
34065;BME280;20339;49.754;20.158;2023-03-11T03:14:04;94144.59;;;5.56;85.84
34065;BME280;20339;49.754;20.158;2023-03-11T03:16:33;94142.22;;;5.49;85.69
34065;BME280;20339;49.754;20.158;2023-03-11T03:19:03;94148.48;;;5.41;85.87
34065;BME280;20339;49.754;20.158;2023-03-11T03:21:33;94158.67;;;5.39;86.06
34065;BME280;20339;49.754;20.158;2023-03-11T03:24:02;94160.48;;;5.37;86.03
34065;BME280;20339;49.754;20.158;2023-03-11T03:26:32;94155.59;;;5.32;86.42
34065;BME280;20339;49.754;20.158;2023-03-11T03:29:01;94166.05;;;5.31;86.73
34065;BME280;20339;49.754;20.158;2023-03-11T03:31:30;94159.84;;;5.30;86.86
34065;BME280;20339;49.754;20.158;2023-03-11T03:34:00;94155.86;;;5.28;87.00
34065;BME280;20339;49.754;20.158;2023-03-11T03:36:29;94148.78;;;5.28;87.01
34065;BME280;20339;49.754;20.158;2023-03-11T03:38:59;94144.45;;;5.29;86.91
34065;BME280;20339;49.754;20.158;2023-03-11T03:41:28;94134.80;;;5.26;86.96
34065;BME280;20339;49.754;20.158;2023-03-11T03:43:57;94127.48;;;5.25;86.69
34065;BME280;20339;49.754;20.158;2023-03-11T03:46:27;94127.92;;;5.26;86.25
34065;BME280;20339;49.754;20.158;2023-03-11T03:48:56;94133.55;;;5.28;85.84
34065;BME280;20339;49.754;20.158;2023-03-11T03:51:25;94120.76;;;5.29;85.27
34065;BME280;20339;49.754;20.158;2023-03-11T03:53:55;94113.59;;;5.28;84.79
34065;BME280;20339;49.754;20.158;2023-03-11T03:56:24;94125.11;;;5.25;84.56
34065;BME280;20339;49.754;20.158;2023-03-11T03:58:53;94121.89;;;5.24;84.54
34065;BME280;20339;49.754;20.158;2023-03-11T04:01:23;94126.75;;;5.23;84.46
34065;BME280;20339;49.754;20.158;2023-03-11T04:03:52;94121.45;;;5.21;84.03
34065;BME280;20339;49.754;20.158;2023-03-11T04:06:22;94115.11;;;5.20;83.74
34065;BME280;20339;49.754;20.158;2023-03-11T04:08:53;94112.67;;;5.21;83.77
34065;BME280;20339;49.754;20.158;2023-03-11T04:11:22;94113.48;;;5.20;83.76
34065;BME280;20339;49.754;20.158;2023-03-11T04:13:52;94109.80;;;5.18;83.29
34065;BME280;20339;49.754;20.158;2023-03-11T04:16:21;94113.48;;;5.18;83.57
34065;BME280;20339;49.754;20.158;2023-03-11T04:18:51;94111.72;;;5.16;83.23
34065;BME280;20339;49.754;20.158;2023-03-11T04:21:21;94110.52;;;5.14;82.84
34065;BME280;20339;49.754;20.158;2023-03-11T04:23:50;94114.19;;;5.12;82.52
34065;BME280;20339;49.754;20.158;2023-03-11T04:26:19;94102.33;;;5.10;82.52
34065;BME280;20339;49.754;20.158;2023-03-11T04:28:49;94100.80;;;5.08;82.29
34065;BME280;20339;49.754;20.158;2023-03-11T04:31:18;94096.30;;;5.08;81.97
34065;BME280;20339;49.754;20.158;2023-03-11T04:33:48;94094.90;;;5.07;81.63
34065;BME280;20339;49.754;20.158;2023-03-11T04:36:17;94094.50;;;5.03;81.48
34065;BME280;20339;49.754;20.158;2023-03-11T04:38:47;94081.46;;;4.99;80.90
34065;BME280;20339;49.754;20.158;2023-03-11T04:41:17;94082.16;;;4.96;80.44
34065;BME280;20339;49.754;20.158;2023-03-11T04:43:46;94082.88;;;4.95;80.17
34065;BME280;20339;49.754;20.158;2023-03-11T04:46:16;94069.95;;;4.94;80.28
34065;BME280;20339;49.754;20.158;2023-03-11T04:48:45;94063.02;;;4.95;79.93
34065;BME280;20339;49.754;20.158;2023-03-11T04:51:14;94067.84;;;4.94;79.61
34065;BME280;20339;49.754;20.158;2023-03-11T04:53:44;94068.02;;;4.93;79.47
34065;BME280;20339;49.754;20.158;2023-03-11T04:56:13;94068.20;;;4.91;78.98
34065;BME280;20339;49.754;20.158;2023-03-11T04:58:42;94067.03;;;4.90;79.02
34065;BME280;20339;49.754;20.158;2023-03-11T05:01:12;94060.95;;;4.87;78.76
34065;BME280;20339;49.754;20.158;2023-03-11T05:03:41;94060.61;;;4.87;78.17
34065;BME280;20339;49.754;20.158;2023-03-11T05:06:10;94068.17;;;4.86;78.14
34065;BME280;20339;49.754;20.158;2023-03-11T05:08:40;94064.83;;;4.83;77.94
34065;BME280;20339;49.754;20.158;2023-03-11T05:11:09;94069.61;;;4.83;77.81
34065;BME280;20339;49.754;20.158;2023-03-11T05:13:39;94062.20;;;4.81;77.47
34065;BME280;20339;49.754;20.158;2023-03-11T05:16:08;94070.27;;;4.79;77.45
34065;BME280;20339;49.754;20.158;2023-03-11T05:18:38;94077.80;;;4.76;77.54
34065;BME280;20339;49.754;20.158;2023-03-11T05:21:07;94076.59;;;4.74;77.62
34065;BME280;20339;49.754;20.158;2023-03-11T05:23:37;94070.28;;;4.73;77.39
34065;BME280;20339;49.754;20.158;2023-03-11T05:26:06;94064.27;;;4.72;77.26
34065;BME280;20339;49.754;20.158;2023-03-11T05:28:36;94063.45;;;4.71;77.15
34065;BME280;20339;49.754;20.158;2023-03-11T05:31:08;94057.29;;;4.72;76.59
34065;BME280;20339;49.754;20.158;2023-03-11T05:33:38;94064.20;;;4.71;76.99
34065;BME280;20339;49.754;20.158;2023-03-11T05:36:08;94063.85;;;4.68;77.16
34065;BME280;20339;49.754;20.158;2023-03-11T05:38:38;94060.36;;;4.67;76.98
34065;BME280;20339;49.754;20.158;2023-03-11T05:41:07;94066.69;;;4.68;76.92
34065;BME280;20339;49.754;20.158;2023-03-11T05:43:37;94062.30;;;4.69;76.97
34065;BME280;20339;49.754;20.158;2023-03-11T05:46:06;94067.27;;;4.69;77.01
34065;BME280;20339;49.754;20.158;2023-03-11T05:48:36;94071.42;;;4.70;76.87
34065;BME280;20339;49.754;20.158;2023-03-11T05:51:07;94069.99;;;4.68;76.69
34065;BME280;20339;49.754;20.158;2023-03-11T05:53:37;94069.55;;;4.67;76.97
34065;BME280;20339;49.754;20.158;2023-03-11T05:56:06;94064.86;;;4.68;76.91
34065;BME280;20339;49.754;20.158;2023-03-11T05:58:36;94077.03;;;4.66;76.97
34065;BME280;20339;49.754;20.158;2023-03-11T06:01:08;94087.71;;;4.64;77.17
34065;BME280;20339;49.754;20.158;2023-03-11T06:03:38;94083.20;;;4.63;77.35
34065;BME280;20339;49.754;20.158;2023-03-11T06:06:09;94094.64;;;4.60;77.26
34065;BME280;20339;49.754;20.158;2023-03-11T06:08:39;94093.20;;;4.60;77.37
34065;BME280;20339;49.754;20.158;2023-03-11T06:11:13;94095.52;;;4.62;77.58
34065;BME280;20339;49.754;20.158;2023-03-11T06:13:42;94094.65;;;4.64;77.71
34065;BME280;20339;49.754;20.158;2023-03-11T06:16:12;94092.27;;;4.65;77.76
34065;BME280;20339;49.754;20.158;2023-03-11T06:18:41;94101.27;;;4.64;77.68
34065;BME280;20339;49.754;20.158;2023-03-11T06:21:11;94102.22;;;4.64;77.48
34065;BME280;20339;49.754;20.158;2023-03-11T06:23:44;94100.27;;;4.64;77.08
34065;BME280;20339;49.754;20.158;2023-03-11T06:26:14;94107.38;;;4.66;76.95
34065;BME280;20339;49.754;20.158;2023-03-11T06:28:44;94119.79;;;4.67;77.20
34065;BME280;20339;49.754;20.158;2023-03-11T06:31:14;94145.20;;;4.64;77.43
34065;BME280;20339;49.754;20.158;2023-03-11T06:33:44;94157.79;;;4.25;76.53
34065;BME280;20339;49.754;20.158;2023-03-11T06:36:15;94138.34;;;3.33;78.15
34065;BME280;20339;49.754;20.158;2023-03-11T06:38:44;94145.53;;;2.65;80.57
34065;BME280;20339;49.754;20.158;2023-03-11T06:41:15;94168.84;;;2.32;82.46
34065;BME280;20339;49.754;20.158;2023-03-11T06:43:45;94180.47;;;2.20;83.67
34065;BME280;20339;49.754;20.158;2023-03-11T06:46:15;94189.66;;;2.17;84.31
34065;BME280;20339;49.754;20.158;2023-03-11T06:48:45;94201.71;;;2.15;84.90
34065;BME280;20339;49.754;20.158;2023-03-11T06:51:19;94208.48;;;2.14;85.59
34065;BME280;20339;49.754;20.158;2023-03-11T06:53:49;94211.83;;;2.09;85.91
34065;BME280;20339;49.754;20.158;2023-03-11T06:56:19;94223.42;;;2.09;86.27
34065;BME280;20339;49.754;20.158;2023-03-11T06:58:49;94227.48;;;2.07;85.96
34065;BME280;20339;49.754;20.158;2023-03-11T07:01:20;94229.63;;;2.04;85.72
34065;BME280;20339;49.754;20.158;2023-03-11T07:03:50;94234.84;;;2.05;85.78
34065;BME280;20339;49.754;20.158;2023-03-11T07:06:20;94236.12;;;2.10;85.28
34065;BME280;20339;49.754;20.158;2023-03-11T07:08:51;94240.29;;;2.12;85.00
34065;BME280;20339;49.754;20.158;2023-03-11T07:11:22;94237.48;;;2.14;84.65
34065;BME280;20339;49.754;20.158;2023-03-11T07:13:52;94239.05;;;2.15;84.28
34065;BME280;20339;49.754;20.158;2023-03-11T07:16:24;94232.43;;;2.16;83.53
34065;BME280;20339;49.754;20.158;2023-03-11T07:18:55;94233.89;;;2.16;82.95
34065;BME280;20339;49.754;20.158;2023-03-11T07:21:26;94238.66;;;2.15;82.28
34065;BME280;20339;49.754;20.158;2023-03-11T07:23:57;94240.18;;;2.16;81.63
34065;BME280;20339;49.754;20.158;2023-03-11T07:26:27;94244.02;;;2.15;80.54
34065;BME280;20339;49.754;20.158;2023-03-11T07:28:58;94242.48;;;2.15;79.70
34065;BME280;20339;49.754;20.158;2023-03-11T07:31:30;94236.05;;;2.15;79.18
34065;BME280;20339;49.754;20.158;2023-03-11T07:34:00;94250.33;;;2.15;79.12
34065;BME280;20339;49.754;20.158;2023-03-11T07:36:30;94245.73;;;2.15;78.39
34065;BME280;20339;49.754;20.158;2023-03-11T07:39:02;94235.82;;;2.14;78.46
34065;BME280;20339;49.754;20.158;2023-03-11T07:41:32;94242.85;;;2.12;78.41
34065;BME280;20339;49.754;20.158;2023-03-11T07:44:02;94251.82;;;2.08;78.34
34065;BME280;20339;49.754;20.158;2023-03-11T07:46:33;94252.13;;;2.05;78.42
34065;BME280;20339;49.754;20.158;2023-03-11T07:49:03;94251.73;;;2.04;78.49
34065;BME280;20339;49.754;20.158;2023-03-11T07:51:34;94245.88;;;1.96;77.70
34065;BME280;20339;49.754;20.158;2023-03-11T07:54:04;94257.56;;;1.86;78.24
34065;BME280;20339;49.754;20.158;2023-03-11T07:56:36;94259.19;;;1.77;78.16
34065;BME280;20339;49.754;20.158;2023-03-11T07:59:06;94273.13;;;1.73;78.44
34065;BME280;20339;49.754;20.158;2023-03-11T08:01:36;94286.91;;;1.70;78.14
34065;BME280;20339;49.754;20.158;2023-03-11T08:04:09;94268.10;;;1.68;78.31
34065;BME280;20339;49.754;20.158;2023-03-11T08:06:40;94285.66;;;1.64;78.55
34065;BME280;20339;49.754;20.158;2023-03-11T08:09:10;94286.31;;;1.58;78.84
34065;BME280;20339;49.754;20.158;2023-03-11T08:11:40;94291.11;;;1.51;79.41
34065;BME280;20339;49.754;20.158;2023-03-11T08:14:09;94303.55;;;1.47;79.75
34065;BME280;20339;49.754;20.158;2023-03-11T08:16:39;94290.30;;;1.46;79.89
34065;BME280;20339;49.754;20.158;2023-03-11T08:19:11;94312.42;;;1.47;80.10
34065;BME280;20339;49.754;20.158;2023-03-11T08:21:41;94302.58;;;1.50;80.28
34065;BME280;20339;49.754;20.158;2023-03-11T08:24:11;94305.06;;;1.57;80.55
34065;BME280;20339;49.754;20.158;2023-03-11T08:26:41;94312.43;;;1.65;80.68
34065;BME280;20339;49.754;20.158;2023-03-11T08:29:11;94318.04;;;1.70;80.47
34065;BME280;20339;49.754;20.158;2023-03-11T08:31:40;94318.45;;;1.68;80.30
34065;BME280;20339;49.754;20.158;2023-03-11T08:34:10;94334.91;;;1.68;80.70
34065;BME280;20339;49.754;20.158;2023-03-11T08:36:41;94330.61;;;1.71;80.62
34065;BME280;20339;49.754;20.158;2023-03-11T08:39:11;94334.02;;;1.74;81.04
34065;BME280;20339;49.754;20.158;2023-03-11T08:41:41;94335.57;;;1.71;80.85
34065;BME280;20339;49.754;20.158;2023-03-11T08:44:10;94327.34;;;1.67;80.70
34065;BME280;20339;49.754;20.158;2023-03-11T08:46:40;94343.89;;;1.64;80.62
34065;BME280;20339;49.754;20.158;2023-03-11T08:49:10;94346.92;;;1.63;80.98
34065;BME280;20339;49.754;20.158;2023-03-11T08:51:39;94352.30;;;1.60;80.94
34065;BME280;20339;49.754;20.158;2023-03-11T08:54:09;94350.75;;;1.59;81.17
34065;BME280;20339;49.754;20.158;2023-03-11T08:56:39;94354.91;;;1.60;81.22
34065;BME280;20339;49.754;20.158;2023-03-11T08:59:08;94363.98;;;1.61;81.07
34065;BME280;20339;49.754;20.158;2023-03-11T09:01:38;94367.31;;;1.62;81.22
34065;BME280;20339;49.754;20.158;2023-03-11T09:04:09;94366.51;;;1.64;80.91
34065;BME280;20339;49.754;20.158;2023-03-11T09:06:42;94373.34;;;1.71;80.73
34065;BME280;20339;49.754;20.158;2023-03-11T09:09:12;94383.50;;;1.77;80.85
34065;BME280;20339;49.754;20.158;2023-03-11T09:11:41;94375.55;;;1.89;80.41
34065;BME280;20339;49.754;20.158;2023-03-11T09:14:11;94380.98;;;1.90;79.86
34065;BME280;20339;49.754;20.158;2023-03-11T09:16:41;94389.14;;;1.83;79.51
34065;BME280;20339;49.754;20.158;2023-03-11T09:19:11;94389.42;;;1.76;78.92
34065;BME280;20339;49.754;20.158;2023-03-11T09:21:40;94393.98;;;1.76;79.37
34065;BME280;20339;49.754;20.158;2023-03-11T09:24:10;94383.31;;;1.81;78.87
34065;BME280;20339;49.754;20.158;2023-03-11T09:26:39;94394.73;;;1.82;78.25
34065;BME280;20339;49.754;20.158;2023-03-11T09:29:11;94403.77;;;1.83;78.39
34065;BME280;20339;49.754;20.158;2023-03-11T09:31:41;94395.27;;;1.81;78.43
34065;BME280;20339;49.754;20.158;2023-03-11T09:34:11;94394.44;;;1.76;77.84
34065;BME280;20339;49.754;20.158;2023-03-11T09:36:41;94406.52;;;1.71;77.91
34065;BME280;20339;49.754;20.158;2023-03-11T09:39:10;94409.40;;;1.67;78.15
34065;BME280;20339;49.754;20.158;2023-03-11T09:41:41;94415.77;;;1.69;77.91
34065;BME280;20339;49.754;20.158;2023-03-11T09:44:16;94416.69;;;1.77;78.11
34065;BME280;20339;49.754;20.158;2023-03-11T09:49:37;94415.82;;;1.94;76.38
34065;BME280;20339;49.754;20.158;2023-03-11T09:52:11;94433.70;;;1.94;76.31
34065;BME280;20339;49.754;20.158;2023-03-11T09:54:41;94425.77;;;1.99;76.65
34065;BME280;20339;49.754;20.158;2023-03-11T09:57:12;94431.37;;;1.99;76.84
34065;BME280;20339;49.754;20.158;2023-03-11T09:59:43;94435.27;;;2.00;77.34
34065;BME280;20339;49.754;20.158;2023-03-11T10:02:15;94438.70;;;2.11;78.14
34065;BME280;20339;49.754;20.158;2023-03-11T10:04:49;94433.64;;;2.39;78.14
34065;BME280;20339;49.754;20.158;2023-03-11T10:07:20;94430.14;;;2.59;77.33
34065;BME280;20339;49.754;20.158;2023-03-11T10:09:52;94441.66;;;2.51;76.78
34065;BME280;20339;49.754;20.158;2023-03-11T10:12:27;94443.94;;;2.29;77.33
34065;BME280;20339;49.754;20.158;2023-03-11T10:15:06;94445.31;;;2.08;78.39
34065;BME280;20339;49.754;20.158;2023-03-11T10:17:45;94453.85;;;1.96;79.34
34065;BME280;20339;49.754;20.158;2023-03-11T10:20:19;94466.80;;;1.93;80.96
34065;BME280;20339;49.754;20.158;2023-03-11T10:22:52;94481.83;;;1.78;81.29
34065;BME280;20339;49.754;20.158;2023-03-11T10:25:27;94470.27;;;1.74;81.59
34065;BME280;20339;49.754;20.158;2023-03-11T10:27:58;94463.86;;;1.88;81.26
34065;BME280;20339;49.754;20.158;2023-03-11T10:30:30;94445.03;;;2.05;79.58
34065;BME280;20339;49.754;20.158;2023-03-11T10:33:05;94466.01;;;2.04;78.84
34065;BME280;20339;49.754;20.158;2023-03-11T10:35:38;94490.36;;;1.97;78.55
34065;BME280;20339;49.754;20.158;2023-03-11T10:38:12;94496.34;;;1.85;79.96
34065;BME280;20339;49.754;20.158;2023-03-11T10:40:43;94508.49;;;1.60;80.68
34065;BME280;20339;49.754;20.158;2023-03-11T10:43:14;94515.54;;;1.55;81.48
34065;BME280;20339;49.754;20.158;2023-03-11T10:45:44;94532.94;;;1.61;81.83
34065;BME280;20339;49.754;20.158;2023-03-11T10:48:15;94523.17;;;1.53;80.21
34065;BME280;20339;49.754;20.158;2023-03-11T10:50:48;94531.71;;;1.42;79.60
34065;BME280;20339;49.754;20.158;2023-03-11T10:53:19;94542.53;;;1.39;80.18
34065;BME280;20339;49.754;20.158;2023-03-11T10:55:49;94530.89;;;1.42;80.00
34065;BME280;20339;49.754;20.158;2023-03-11T10:58:20;94535.58;;;1.33;79.39
34065;BME280;20339;49.754;20.158;2023-03-11T11:01:00;94550.90;;;1.31;80.20
34065;BME280;20339;49.754;20.158;2023-03-11T11:03:30;94554.96;;;1.38;79.46
34065;BME280;20339;49.754;20.158;2023-03-11T11:06:02;94547.30;;;1.37;79.35
34065;BME280;20339;49.754;20.158;2023-03-11T11:08:33;94558.36;;;1.38;79.22
34065;BME280;20339;49.754;20.158;2023-03-11T11:11:07;94552.14;;;1.49;79.86
34065;BME280;20339;49.754;20.158;2023-03-11T11:13:56;94557.16;;;1.47;80.10
34065;BME280;20339;49.754;20.158;2023-03-11T11:16:27;94567.04;;;1.46;80.19
34065;BME280;20339;49.754;20.158;2023-03-11T11:18:58;94571.04;;;1.40;80.72
34065;BME280;20339;49.754;20.158;2023-03-11T11:21:31;94590.00;;;1.31;81.73
34065;BME280;20339;49.754;20.158;2023-03-11T11:24:08;94582.05;;;1.22;82.04
34065;BME280;20339;49.754;20.158;2023-03-11T11:26:39;94588.98;;;1.02;82.31
34065;BME280;20339;49.754;20.158;2023-03-11T11:29:13;94594.92;;;0.88;82.72
34065;BME280;20339;49.754;20.158;2023-03-11T11:31:43;94600.54;;;0.79;82.83
34065;BME280;20339;49.754;20.158;2023-03-11T11:34:26;94595.96;;;0.73;83.25
34065;BME280;20339;49.754;20.158;2023-03-11T11:36:56;94609.85;;;0.66;84.07
34065;BME280;20339;49.754;20.158;2023-03-11T11:39:28;94609.67;;;0.55;85.09
34065;BME280;20339;49.754;20.158;2023-03-11T11:41:58;94608.54;;;0.46;86.14
34065;BME280;20339;49.754;20.158;2023-03-11T11:44:30;94624.39;;;0.39;86.71
34065;BME280;20339;49.754;20.158;2023-03-11T11:47:02;94612.83;;;0.36;87.13
34065;BME280;20339;49.754;20.158;2023-03-11T11:49:48;94628.07;;;0.30;87.12
34065;BME280;20339;49.754;20.158;2023-03-11T11:52:19;94633.63;;;0.26;87.60
34065;BME280;20339;49.754;20.158;2023-03-11T11:54:50;94645.73;;;0.20;88.20
34065;BME280;20339;49.754;20.158;2023-03-11T11:57:20;94648.45;;;0.16;88.60
34065;BME280;20339;49.754;20.158;2023-03-11T11:59:50;94646.31;;;0.18;88.99
34065;BME280;20339;49.754;20.158;2023-03-11T12:02:26;94646.47;;;0.17;88.67
34065;BME280;20339;49.754;20.158;2023-03-11T12:05:01;94661.99;;;0.15;88.96
34065;BME280;20339;49.754;20.158;2023-03-11T12:07:42;94653.23;;;0.14;89.31
34065;BME280;20339;49.754;20.158;2023-03-11T12:10:17;94675.00;;;0.12;89.30
34065;BME280;20339;49.754;20.158;2023-03-11T12:12:51;94672.52;;;0.16;89.54
34065;BME280;20339;49.754;20.158;2023-03-11T12:15:23;94664.65;;;0.16;89.47
34065;BME280;20339;49.754;20.158;2023-03-11T12:17:55;94672.66;;;0.13;89.46
34065;BME280;20339;49.754;20.158;2023-03-11T12:20:29;94692.35;;;0.12;89.59
34065;BME280;20339;49.754;20.158;2023-03-11T12:23:19;94699.64;;;0.10;89.35
34065;BME280;20339;49.754;20.158;2023-03-11T12:28:44;94717.27;;;0.11;89.95
34065;BME280;20339;49.754;20.158;2023-03-11T12:31:14;94732.79;;;0.08;89.94
34065;BME280;20339;49.754;20.158;2023-03-11T12:33:44;94730.28;;;0.04;90.25
34065;BME280;20339;49.754;20.158;2023-03-11T12:36:23;94754.61;;;0.03;90.73
34065;BME280;20339;49.754;20.158;2023-03-11T12:38:53;94756.64;;;0.04;90.28
34065;BME280;20339;49.754;20.158;2023-03-11T12:41:29;94756.39;;;0.05;90.67
34065;BME280;20339;49.754;20.158;2023-03-11T12:44:02;94762.22;;;0.03;90.64
34065;BME280;20339;49.754;20.158;2023-03-11T12:49:21;94778.19;;;-0.00;91.12
34065;BME280;20339;49.754;20.158;2023-03-11T12:52:02;94796.73;;;-0.02;91.50
34065;BME280;20339;49.754;20.158;2023-03-11T12:54:33;94800.79;;;-0.07;91.83
34065;BME280;20339;49.754;20.158;2023-03-11T12:57:04;94802.80;;;-0.14;92.08
34065;BME280;20339;49.754;20.158;2023-03-11T13:02:52;94840.10;;;-0.22;92.61
34065;BME280;20339;49.754;20.158;2023-03-11T13:05:25;94847.17;;;-0.26;92.16
34065;BME280;20339;49.754;20.158;2023-03-11T13:07:57;94830.19;;;-0.36;92.65
34065;BME280;20339;49.754;20.158;2023-03-11T13:10:36;94852.31;;;-0.47;93.07
34065;BME280;20339;49.754;20.158;2023-03-11T13:13:27;94850.77;;;-0.52;93.20
34065;BME280;20339;49.754;20.158;2023-03-11T13:15:57;94861.45;;;-0.53;92.94
34065;BME280;20339;49.754;20.158;2023-03-11T13:18:47;94868.42;;;-0.52;92.61
34065;BME280;20339;49.754;20.158;2023-03-11T13:21:37;94862.70;;;-0.51;92.32
34065;BME280;20339;49.754;20.158;2023-03-11T13:26:58;94897.05;;;-0.52;92.87
34065;BME280;20339;49.754;20.158;2023-03-11T13:29:43;94898.42;;;-0.48;92.72
34065;BME280;20339;49.754;20.158;2023-03-11T13:32:38;94892.20;;;-0.43;91.49
34065;BME280;20339;49.754;20.158;2023-03-11T13:35:15;94896.00;;;-0.43;90.26